Time;durP1;ratioP1;P1;durP2;ratioP2;P2;SDS_P1;SDS_P2;PMS_P1;PMS_P2;Temp;Humidity;BMP_temperature;BMP_pressure;BME280_temperature;BME280_humidity;BME280_pressure;Samples;Min_cycle;Max_cycle;Signal;HPM_P1;HPM_P2
2024/04/09 00:01:40;;;;;;;10.80;5.00;;;;;;;12.35;61.29;99702.73;107221;1256;61241;-39
2024/04/09 00:04:08;;;;;;;8.40;4.70;;;;;;;12.35;61.40;99702.19;107202;1256;74654;-39
2024/04/09 00:06:36;;;;;;;17.30;5.20;;;;;;;12.34;61.50;99701.48;107258;1257;65319;-39
2024/04/09 00:09:05;;;;;;;9.70;4.30;;;;;;;12.32;61.46;99697.57;107050;1256;71810;-39
2024/04/09 00:11:33;;;;;;;;;;;;;;;12.30;61.52;99694.18;107108;1256;61119;-39
2024/04/09 00:14:04;;;;;;;11.70;4.80;;;;;;;12.27;61.54;99694.36;107165;1256;61197;-39
2024/04/09 00:16:33;;;;;;;10.20;4.40;;;;;;;12.21;61.67;99694.58;107139;1256;74766;-39
2024/04/09 00:19:00;;;;;;;8.00;4.30;;;;;;;12.18;61.69;99694.30;107053;1256;66674;-39
2024/04/09 00:21:28;;;;;;;11.20;4.50;;;;;;;12.15;61.75;99692.60;107023;1256;313146;-39
2024/04/09 00:25:56;;;;;;;9.20;4.30;;;;;;;12.09;61.84;99688.92;104190;1292;601094;-38
2024/04/09 00:28:23;;;;;;;8.30;4.10;;;;;;;12.03;61.77;99687.81;106603;1265;59707;-38
2024/04/09 00:30:52;;;;;;;7.80;4.30;;;;;;;11.99;61.76;99683.63;106671;1269;59520;-38
2024/04/09 00:33:21;;;;;;;9.60;4.70;;;;;;;11.93;61.82;99682.98;106633;1265;73012;-38
2024/04/09 00:35:51;;;;;;;7.90;4.40;;;;;;;11.88;61.99;99684.19;106580;1265;66324;-38
2024/04/09 00:38:23;;;;;;;7.70;4.40;;;;;;;11.83;62.16;99682.64;106635;1266;71934;-38
2024/04/09 00:40:50;;;;;;;7.30;4.20;;;;;;;11.79;62.27;99686.73;106634;1263;59520;-38
2024/04/09 00:43:17;;;;;;;8.70;4.70;;;;;;;11.74;62.43;99686.40;106820;1263;59523;-38
2024/04/09 00:45:46;;;;;;;9.50;4.30;;;;;;;11.69;62.44;99694.14;107026;1259;73094;-38
2024/04/09 00:48:13;;;;;;;11.50;4.50;;;;;;;11.65;62.58;99690.02;107091;1259;66803;-38
2024/04/09 00:50:41;;;;;;;10.60;4.90;;;;;;;11.67;62.66;99689.90;107017;1259;72710;-38
2024/04/09 00:53:11;;;;;;;11.50;4.30;;;;;;;11.71;62.67;99691.46;107012;1259;60412;-38
2024/04/09 00:55:42;;;;;;;15.00;5.00;;;;;;;11.71;62.94;99692.45;107007;1264;59324;-38
2024/04/09 00:58:11;;;;;;;8.60;4.70;;;;;;;11.70;63.04;99694.08;106999;1259;73022;-38
2024/04/09 01:00:42;;;;;;;7.90;4.60;;;;;;;11.69;63.05;99691.48;107029;1259;66303;-37
2024/04/09 01:03:10;;;;;;;9.70;5.00;;;;;;;11.67;63.14;99688.19;106980;1263;72682;-38
2024/04/09 01:05:38;;;;;;;8.60;4.80;;;;;;;11.66;63.05;99686.09;107029;1259;60348;-37
2024/04/09 01:08:06;;;;;;;10.70;5.40;;;;;;;11.63;63.03;99686.33;107008;1259;60438;-38
2024/04/09 01:10:33;;;;;;;7.90;5.00;;;;;;;11.60;63.25;99687.90;106912;1259;72725;-38
2024/04/09 01:13:01;;;;;;;9.30;4.70;;;;;;;11.57;63.18;99688.45;106988;1259;67594;-38
2024/04/09 01:15:28;;;;;;;11.80;5.10;;;;;;;11.53;63.34;99687.13;106964;1260;72747;-38
2024/04/09 01:17:56;;;;;;;8.20;4.80;;;;;;;11.50;63.50;99692.27;107026;1260;60549;-38
2024/04/09 01:20:25;;;;;;;;;;;;;;;11.46;63.66;99692.42;107039;1259;60050;-38
2024/04/09 01:22:54;;;;;;;9.50;4.30;;;;;;;11.41;63.70;99689.52;106972;1260;73861;-37
2024/04/09 01:25:22;;;;;;;9.10;5.20;;;;;;;11.36;64.06;99689.03;106921;1260;67647;-38
2024/04/09 01:27:49;;;;;;;10.00;4.60;;;;;;;11.32;64.39;99691.12;106965;1260;72761;-38
2024/04/09 01:30:18;;;;;;;9.50;4.30;;;;;;;11.34;64.21;99689.00;106946;1259;60481;-38
2024/04/09 01:32:46;;;;;;;9.80;4.60;;;;;;;11.40;64.22;99690.43;107062;1260;60741;-38
2024/04/09 01:35:14;;;;;;;11.60;5.20;;;;;;;11.40;64.25;99693.08;106990;1260;73825;-38
2024/04/09 01:37:42;;;;;;;7.70;4.40;;;;;;;11.39;64.22;99694.98;106980;1259;67622;-38
2024/04/09 01:40:10;;;;;;;7.70;4.30;;;;;;;11.38;64.40;99696.27;107039;1261;72672;-38
2024/04/09 01:42:38;;;;;;;12.30;5.40;;;;;;;11.35;64.41;99690.94;107003;1264;60473;-38
2024/04/09 01:45:06;;;;;;;8.40;4.80;;;;;;;11.34;64.62;99695.27;107019;1260;60341;-38
2024/04/09 01:47:34;;;;;;;10.20;5.30;;;;;;;11.32;64.66;99697.64;107093;1260;72681;-38
2024/04/09 01:50:09;;;;;;;10.30;4.90;;;;;;;11.29;64.80;99698.44;107004;1265;67599;-38
2024/04/09 01:52:37;;;;;;;11.40;4.80;;;;;;;11.26;64.63;99691.77;107009;1260;71352;-38
2024/04/09 01:55:07;;;;;;;10.10;5.30;;;;;;;11.17;64.65;99685.91;107079;1260;60388;-38
2024/04/09 01:57:35;;;;;;;8.50;4.80;;;;;;;11.17;64.81;99695.92;107038;1260;60343;-38
2024/04/09 02:00:11;;;;;;;10.50;5.50;;;;;;;11.13;65.03;99695.22;107021;1259;73863;-38
2024/04/09 02:02:40;;;;;;;12.80;5.30;;;;;;;11.09;65.03;99698.30;107038;1260;66712;-38
2024/04/09 02:05:08;;;;;;;8.20;4.90;;;;;;;11.11;65.00;99695.87;107017;1260;72672;-38
2024/04/09 02:07:36;;;;;;;12.40;5.40;;;;;;;11.15;64.91;99695.64;107024;1259;60312;-38
2024/04/09 02:10:04;;;;;;;10.60;5.70;;;;;;;11.15;65.06;99695.40;106999;1260;59305;-38
2024/04/09 02:12:31;;;;;;;10.50;5.20;;;;;;;11.14;65.24;99695.15;107015;1260;74170;-38
2024/04/09 02:14:59;;;;;;;11.70;5.60;;;;;;;11.14;65.31;99696.23;106921;1260;67553;-38
2024/04/09 02:17:26;;;;;;;10.30;5.40;;;;;;;11.12;65.21;99696.14;107002;1259;72719;-38
2024/04/09 02:19:54;;;;;;;11.20;6.30;;;;;;;11.11;65.06;99696.00;106998;1261;60447;-38
2024/04/09 02:22:21;;;;;;;9.90;5.30;;;;;;;11.08;65.14;99698.83;107011;1260;60102;-38
2024/04/09 02:24:48;;;;;;;13.70;5.90;;;;;;;11.05;65.07;99698.05;107017;1259;73887;-38
2024/04/09 02:27:16;;;;;;;11.00;5.90;;;;;;;11.01;65.09;99699.21;107010;1259;67588;-38
2024/04/09 02:29:43;;;;;;;9.60;5.50;;;;;;;10.97;65.21;99708.10;107026;1263;72691;-38
2024/04/09 02:32:11;;;;;;;11.90;7.00;;;;;;;10.92;65.16;99709.77;107017;1259;60236;-38
2024/04/09 02:34:38;;;;;;;13.00;6.50;;;;;;;10.88;65.27;99715.73;106976;1259;60421;-38
2024/04/09 02:37:05;;;;;;;10.40;6.20;;;;;;;10.85;65.26;99718.05;106896;1259;73826;-38
2024/04/09 02:39:33;;;;;;;10.60;5.60;;;;;;;10.89;65.16;99714.65;107009;1260;66340;-38
2024/04/09 02:42:03;;;;;;;10.40;5.90;;;;;;;10.96;64.94;99715.91;106951;1259;72707;-38
2024/04/09 02:44:31;;;;;;;14.70;6.20;;;;;;;10.94;64.93;99707.34;107043;1261;60521;-38
2024/04/09 02:46:59;;;;;;;11.70;5.80;;;;;;;11.00;65.01;99715.30;106977;1260;60498;-38
2024/04/09 02:49:28;;;;;;;12.70;5.90;;;;;;;11.00;64.84;99714.53;107005;1260;73842;-38
2024/04/09 02:51:56;;;;;;;9.90;5.90;;;;;;;11.00;64.86;99716.46;106996;1259;67639;-37
2024/04/09 02:54:23;;;;;;;12.90;5.50;;;;;;;10.97;64.64;99713.60;106990;1261;72656;-38
2024/04/09 02:56:51;;;;;;;13.70;6.40;;;;;;;10.96;64.73;99715.91;107005;1259;60331;-37
2024/04/09 02:59:18;;;;;;;9.20;5.60;;;;;;;10.93;64.66;99715.91;107032;1260;60468;-37
2024/04/09 03:01:45;;;;;;;11.20;5.90;;;;;;;10.89;64.80;99719.33;107027;1260;73074;-37
2024/04/09 03:04:13;;;;;;;8.40;5.40;;;;;;;10.86;64.76;99717.33;107043;1259;67610;-38
2024/04/09 03:06:41;;;;;;;11.70;5.80;;;;;;;10.83;64.85;99721.27;106964;1260;72720;-37
2024/04/09 03:09:10;;;;;;;9.80;5.90;;;;;;;10.81;64.86;99726.95;107032;1261;60548;-37
2024/04/09 03:11:37;;;;;;;12.20;6.10;;;;;;;10.77;65.00;99727.17;107013;1259;60444;-37
2024/04/09 03:14:10;;;;;;;10.50;5.40;;;;;;;10.79;65.14;99727.30;106981;1260;72766;-38
2024/04/09 03:16:38;;;;;;;10.60;6.00;;;;;;;10.83;65.21;99727.09;107032;1260;67648;-38
2024/04/09 03:19:05;;;;;;;12.80;5.80;;;;;;;10.81;65.44;99723.17;106993;1265;72696;-38
2024/04/09 03:21:34;;;;;;;10.40;5.60;;;;;;;10.80;65.64;99730.56;107018;1260;60339;-37
2024/04/09 03:24:02;;;;;;;9.70;5.40;;;;;;;10.78;65.73;99734.02;106924;1260;60277;-38
2024/04/09 03:26:30;;;;;;;12.10;5.90;;;;;;;10.76;65.85;99736.52;107016;1260;73839;-38
2024/04/09 03:28:57;;;;;;;11.60;6.20;;;;;;;10.74;65.95;99739.13;106998;1260;66346;-38
2024/04/09 03:31:25;;;;;;;10.90;5.60;;;;;;;10.72;66.37;99739.05;107003;1261;70452;-38
2024/04/09 03:33:53;;;;;;;12.10;6.30;;;;;;;10.70;66.36;99743.34;106985;1260;60328;-38
2024/04/09 03:36:21;;;;;;;14.80;6.10;;;;;;;10.69;66.32;99742.25;107021;1260;60451;-38
2024/04/09 03:38:48;;;;;;;8.10;5.20;;;;;;;10.67;66.21;99739.95;107007;1260;73912;-38
2024/04/09 03:41:16;;;;;;;14.50;6.60;;;;;;;10.65;66.23;99746.33;107003;1260;67718;-38
2024/04/09 03:43:43;;;;;;;9.30;5.50;;;;;;;10.68;66.16;99742.60;107014;1260;71419;-38
2024/04/09 03:46:12;;;;;;;10.20;5.50;;;;;;;10.75;66.06;99744.65;106986;1260;59588;-38
2024/04/09 03:48:42;;;;;;;10.70;5.80;;;;;;;10.77;65.99;99750.04;107062;1260;60383;-38
2024/04/09 03:51:11;;;;;;;12.40;6.20;;;;;;;10.78;66.09;99746.89;106973;1260;73992;-38
2024/04/09 03:53:40;;;;;;;10.30;6.40;;;;;;;10.80;66.00;99748.70;106893;1260;67568;-38
2024/04/09 03:56:09;;;;;;;12.70;6.40;;;;;;;10.79;65.98;99750.39;106942;1260;71496;-38
2024/04/09 03:58:38;;;;;;;10.80;6.10;;;;;;;10.78;66.07;99754.71;106900;1260;60344;-38
2024/04/09 04:01:08;;;;;;;12.20;6.60;;;;;;;10.77;66.02;99747.94;107033;1260;59325;-38
2024/04/09 04:03:38;;;;;;;;;;;;;;;10.76;66.10;99746.13;106954;1260;72847;-38
2024/04/09 04:06:06;;;;;;;12.00;6.10;;;;;;;10.76;66.18;99744.27;106994;1265;67719;-38
2024/04/09 04:08:36;;;;;;;11.20;5.70;;;;;;;10.76;66.31;99750.48;106999;1259;72735;-38
2024/04/09 04:11:08;;;;;;;13.60;5.80;;;;;;;10.79;66.38;99749.77;106941;1260;60412;-38
2024/04/09 04:13:36;;;;;;;10.40;5.30;;;;;;;10.88;66.24;99758.20;107052;1261;60585;-38
2024/04/09 04:16:12;;;;;;;13.10;4.50;;;;;;;10.97;66.13;99754.30;107042;1259;71859;-38
2024/04/09 04:18:43;;;;;;;6.70;4.30;;;;;;;11.10;66.08;99762.50;107019;1260;67902;-38
2024/04/09 04:21:18;;;;;;;9.50;4.00;;;;;;;11.19;65.70;99762.96;107064;1263;72688;-38
2024/04/09 04:23:48;;;;;;;11.00;5.00;;;;;;;11.29;65.54;99765.98;107031;1263;60504;-38
2024/04/09 04:26:17;;;;;;;7.40;4.30;;;;;;;11.41;65.33;99771.96;107096;1260;60401;-38
2024/04/09 04:28:45;;;;;;;7.90;4.40;;;;;;;11.49;65.00;99773.10;107075;1260;74143;-38
2024/04/09 04:31:14;;;;;;;10.30;4.50;;;;;;;11.57;64.78;99770.54;106998;1260;68200;-38
2024/04/09 04:33:41;;;;;;;10.90;4.60;;;;;;;11.65;64.32;99772.19;107030;1264;71115;-38
2024/04/09 04:36:10;;;;;;;6.50;4.70;;;;;;;11.73;64.08;99772.68;107003;1260;61024;-38
2024/04/09 04:38:42;;;;;;;9.90;4.00;;;;;;;11.82;63.87;99773.10;107051;1260;59396;-38
2024/04/09 04:41:10;;;;;;;9.00;4.90;;;;;;;11.89;63.71;99773.70;107045;1260;73697;-38
2024/04/09 04:43:41;;;;;;;7.20;4.10;;;;;;;11.96;63.50;99775.71;107003;1260;66298;-38
2024/04/09 04:46:08;;;;;;;9.40;4.10;;;;;;;12.03;63.53;99778.96;107025;1260;71408;-38
2024/04/09 04:48:37;;;;;;;6.50;3.90;;;;;;;12.10;63.56;99777.23;106992;1264;61100;-38
2024/04/09 04:51:04;;;;;;;8.50;4.50;;;;;;;12.23;63.39;99776.70;107053;1260;61228;-38
2024/04/09 04:53:32;;;;;;;6.70;3.90;;;;;;;12.39;63.25;99772.64;107009;1260;74694;-38
2024/04/09 04:56:00;;;;;;;7.90;4.10;;;;;;;12.49;63.15;99775.54;106997;1260;67574;-38
2024/04/09 04:58:27;;;;;;;13.80;4.60;;;;;;;12.58;62.96;99780.08;107004;1263;71404;-38
2024/04/09 05:00:55;;;;;;;9.20;5.00;;;;;;;12.69;62.87;99779.54;107030;1260;61073;-38
2024/04/09 05:03:22;;;;;;;8.50;5.20;;;;;;;12.78;62.67;99780.31;107011;1260;61139;-38
2024/04/09 05:05:50;;;;;;;10.60;5.30;;;;;;;12.87;62.56;99779.14;106864;1260;74721;-38
2024/04/09 05:08:18;;;;;;;9.00;5.70;;;;;;;12.95;62.38;99775.39;106795;1260;68035;-38
2024/04/09 05:10:46;;;;;;;12.30;6.20;;;;;;;13.04;62.19;99777.72;107010;1264;72757;-38
2024/04/09 05:13:13;;;;;;;9.40;6.40;;;;;;;13.12;61.92;99781.27;106991;1260;61215;-38
2024/04/09 05:15:41;;;;;;;8.90;4.70;;;;;;;13.19;61.59;99779.84;107630;1251;61231;-38
2024/04/09 05:18:09;;;;;;;7.50;4.40;;;;;;;13.26;61.18;99776.91;107657;1257;74625;-38
2024/04/09 05:20:39;;;;;;;9.50;4.00;;;;;;;13.33;61.11;99774.59;107548;1252;68048;-38
2024/04/09 05:23:07;;;;;;;7.70;3.50;;;;;;;13.40;61.03;99779.20;107580;1253;71553;-38
2024/04/09 05:25:35;;;;;;;5.50;3.30;;;;;;;13.48;60.90;99786.40;107577;1253;61260;-38
2024/04/09 05:28:03;;;;;;;8.10;3.60;;;;;;;13.56;60.51;99786.52;107629;1252;59969;-38
2024/04/09 05:30:30;;;;;;;6.70;3.30;;;;;;;13.64;59.93;99786.69;107664;1252;73367;-39
2024/04/09 05:32:58;;;;;;;6.20;3.40;;;;;;;13.72;59.75;99787.73;107572;1253;67562;-38
2024/04/09 05:35:27;;;;;;;6.80;3.40;;;;;;;13.78;59.73;99782.67;107593;1253;72803;-38
2024/04/09 05:37:54;;;;;;;8.50;3.70;;;;;;;13.86;59.51;99783.39;107585;1254;61171;-38
2024/04/09 05:40:22;;;;;;;6.70;4.10;;;;;;;13.95;59.32;99782.41;107638;1252;61189;-39
2024/04/09 05:42:49;;;;;;;8.50;3.80;;;;;;;14.04;59.37;99782.11;107577;1256;75193;-38
2024/04/09 05:45:21;;;;;;;7.80;4.00;;;;;;;14.12;59.31;99780.74;107574;1254;66884;-38
2024/04/09 05:47:48;;;;;;;5.50;3.60;;;;;;;14.22;59.22;99780.93;107641;1256;72795;-39
2024/04/09 05:50:16;;;;;;;5.70;3.60;;;;;;;14.29;59.11;99778.36;107634;1254;61295;-39
2024/04/09 05:52:44;;;;;;;8.20;3.80;;;;;;;14.40;58.95;99784.50;107616;1256;61328;-39
2024/04/09 05:55:12;;;;;;;7.40;3.90;;;;;;;14.48;58.84;99785.91;107671;1253;74675;-39
2024/04/09 05:57:41;;;;;;;5.00;3.50;;;;;;;14.59;58.68;99787.27;107716;1254;70214;-39
2024/04/09 06:00:14;;;;;;;6.30;3.00;;;;;;;14.69;58.52;99785.32;107728;1255;73024;-38
2024/04/09 06:02:47;;;;;;;8.20;3.50;;;;;;;14.79;58.07;99785.73;107696;1253;61313;-37
2024/04/09 06:05:18;;;;;;;5.80;3.20;;;;;;;14.92;58.01;99787.86;107724;1253;61119;-38
2024/04/09 06:07:45;;;;;;;7.40;3.10;;;;;;;15.05;57.64;99792.25;107575;1254;73438;-39
2024/04/09 06:10:17;;;;;;;8.50;3.40;;;;;;;15.19;56.23;99796.65;107529;1257;68313;-39
2024/04/09 06:12:45;;;;;;;4.80;2.90;;;;;;;15.36;54.96;99795.22;107590;1256;71885;-39
2024/04/09 06:15:13;;;;;;;4.60;3.00;;;;;;;15.51;54.68;99794.61;107549;1254;61308;-39
2024/04/09 06:17:42;;;;;;;6.60;3.00;;;;;;;15.67;54.23;99798.70;107533;1254;61301;-38
2024/04/09 06:20:10;;;;;;;5.20;3.10;;;;;;;15.83;53.70;99801.52;107418;1256;74765;-39
2024/04/09 06:22:37;;;;;;;5.20;2.60;;;;;;;15.97;53.35;99799.08;107641;1259;68258;-39
2024/04/09 06:25:06;;;;;;;3.60;2.70;;;;;;;16.11;52.78;99799.21;107742;1256;74223;-39
2024/04/09 06:27:34;;;;;;;5.10;2.70;;;;;;;16.26;51.82;99806.13;107646;1251;61241;-39
2024/04/09 06:30:02;;;;;;;7.70;3.10;;;;;;;16.39;51.79;99807.02;107665;1252;61338;-39
2024/04/09 06:32:30;;;;;;;5.00;2.60;;;;;;;16.55;51.52;99806.30;107783;1251;75025;-39
2024/04/09 06:34:57;;;;;;;3.80;2.40;;;;;;;16.70;50.85;99805.08;107647;1257;67886;-39
2024/04/09 06:37:25;;;;;;;6.30;3.10;;;;;;;16.85;50.40;99806.58;107603;1254;73031;-39
2024/04/09 06:39:52;;;;;;;4.00;2.50;;;;;;;16.98;50.98;99811.99;107619;1253;62226;-39
2024/04/09 06:42:20;;;;;;;6.80;2.80;;;;;;;17.10;50.87;99811.91;107605;1253;61107;-39
2024/04/09 06:44:47;;;;;;;3.70;2.60;;;;;;;17.21;50.68;99805.64;107707;1255;73484;-39
2024/04/09 06:47:15;;;;;;;4.70;2.20;;;;;;;17.28;49.57;99800.08;107613;1254;67128;-39
2024/04/09 06:49:43;;;;;;;6.50;2.60;;;;;;;17.48;49.54;99807.48;107579;1253;74836;-39
2024/04/09 06:52:11;;;;;;;3.20;2.20;;;;;;;17.66;49.32;99803.08;107596;1252;62289;-39
2024/04/09 06:54:39;;;;;;;4.60;2.50;;;;;;;17.82;49.39;99806.80;107607;1252;60048;-39
2024/04/09 06:57:06;;;;;;;8.40;2.60;;;;;;;17.92;49.20;99794.52;107610;1254;75012;-39
2024/04/09 06:59:34;;;;;;;7.60;2.40;;;;;;;18.11;48.71;99804.34;107647;1253;67104;-39
2024/04/09 07:02:02;;;;;;;3.70;2.30;;;;;;;18.24;47.81;99803.48;107633;1257;71495;-39
2024/04/09 07:04:30;;;;;;;3.80;2.10;;;;;;;18.36;47.10;99800.83;107648;1256;61268;-37
2024/04/09 07:06:58;;;;;;;3.80;2.10;;;;;;;18.48;46.59;99803.66;107649;1251;61453;-38
2024/04/09 07:09:26;;;;;;;3.70;2.00;;;;;;;18.60;45.88;99799.85;107633;1251;74787;-38
2024/04/09 07:11:54;;;;;;;4.00;2.40;;;;;;;18.73;45.86;99799.91;107659;1254;66732;-38
2024/04/09 07:14:21;;;;;;;6.80;2.10;;;;;;;18.89;45.75;99797.98;107583;1255;71567;-38
2024/04/09 07:16:49;;;;;;;5.70;1.90;;;;;;;19.07;44.80;99797.67;107707;1256;60074;-38
2024/04/09 07:19:17;;;;;;;4.60;2.10;;;;;;;19.21;43.90;99794.03;107613;1254;61010;-38
2024/04/09 07:21:44;;;;;;;4.50;2.20;;;;;;;19.34;43.72;99797.45;107616;1254;74045;-38
2024/04/09 07:24:12;;;;;;;7.60;2.00;;;;;;;19.49;42.92;99797.70;107697;1254;67319;-38
2024/04/09 07:26:40;;;;;;;5.20;2.30;;;;;;;19.65;42.75;99793.61;107701;1255;73041;-38
2024/04/09 07:29:07;;;;;;;4.70;2.20;;;;;;;19.81;42.20;99790.67;107604;1255;61215;-38
2024/04/09 07:31:36;;;;;;;2.30;1.90;;;;;;;19.95;42.18;99788.55;107555;1257;61125;-38
2024/04/09 07:34:04;;;;;;;3.50;2.00;;;;;;;20.11;42.21;99787.88;107506;1254;74809;-38
2024/04/09 07:36:32;;;;;;;5.30;2.20;;;;;;;20.26;42.12;99789.02;107550;1255;67293;-38
2024/04/09 07:38:59;;;;;;;4.00;1.70;;;;;;;20.44;41.35;99784.86;107621;1251;74850;-38
2024/04/09 07:41:27;;;;;;;3.60;1.80;;;;;;;20.58;41.10;99782.75;107666;1254;62027;-38
2024/04/09 07:43:56;;;;;;;3.20;2.00;;;;;;;20.74;41.02;99783.14;107594;1257;61407;-38
2024/04/09 07:46:24;;;;;;;2.70;1.70;;;;;;;20.89;40.58;99780.14;107589;1251;74825;-38
2024/04/09 07:48:52;;;;;;;4.90;2.00;;;;;;;21.04;40.59;99778.02;107657;1251;70268;-38
2024/04/09 07:51:19;;;;;;;2.40;1.80;;;;;;;21.18;39.36;99777.53;107615;1256;74879;-38
2024/04/09 07:53:47;;;;;;;3.40;1.80;;;;;;;21.34;39.16;99773.11;107624;1256;61103;-38
2024/04/09 07:56:15;;;;;;;3.00;1.80;;;;;;;21.47;38.28;99774.98;107623;1252;61231;-38
2024/04/09 07:58:42;;;;;;;1.70;1.40;;;;;;;21.54;38.25;99771.15;107593;1257;74937;-38
2024/04/09 08:01:10;;;;;;;2.70;1.70;;;;;;;21.65;37.70;99765.33;107614;1257;68096;-38
2024/04/09 08:03:38;;;;;;;3.30;1.80;;;;;;;21.78;37.36;99762.55;107716;1252;72801;-38
2024/04/09 08:06:06;;;;;;;3.90;1.90;;;;;;;21.87;37.16;99755.02;107625;1254;61389;-38
2024/04/09 08:08:34;;;;;;;3.90;1.80;;;;;;;21.95;37.33;99754.09;107562;1251;61389;-38
2024/04/09 08:11:11;;;;;;;4.00;2.00;;;;;;;22.06;37.05;99752.36;107591;1255;74785;-38
2024/04/09 08:13:39;;;;;;;1.90;1.50;;;;;;;22.16;37.18;99747.83;107626;1256;67944;-38
2024/04/09 08:16:06;;;;;;;4.10;1.40;;;;;;;22.28;36.99;99745.64;107608;1253;75287;-38
2024/04/09 08:18:35;;;;;;;1.50;1.40;;;;;;;22.43;35.79;99745.77;107570;1253;62297;-38
2024/04/09 08:21:03;;;;;;;4.90;1.60;;;;;;;22.55;35.03;99742.58;107723;1255;60986;-38
2024/04/09 08:23:30;;;;;;;2.70;1.60;;;;;;;22.63;34.79;99747.59;107635;1258;73423;-38
2024/04/09 08:25:59;;;;;;;2.80;1.60;;;;;;;22.69;34.78;99749.11;107551;1257;68916;-38
2024/04/09 08:28:26;;;;;;;4.30;1.60;;;;;;;22.78;34.82;99741.73;107651;1254;72771;-38
2024/04/09 08:30:54;;;;;;;2.50;1.70;;;;;;;22.87;34.41;99741.89;107625;1256;61279;-38
2024/04/09 08:33:22;;;;;;;2.10;1.60;;;;;;;22.97;33.94;99742.91;107688;1252;60049;-38
2024/04/09 08:35:50;;;;;;;14.60;3.00;;;;;;;23.01;33.90;99742.83;107517;1255;73863;-38
2024/04/09 08:38:19;;;;;;;12.40;2.80;;;;;;;23.04;34.04;99736.34;107575;1254;69029;-38
2024/04/09 08:40:47;;;;;;;3.70;1.60;;;;;;;23.12;34.18;99734.14;107654;1254;71789;-38
2024/04/09 08:43:16;;;;;;;43.10;6.50;;;;;;;23.23;33.45;99728.64;107612;1256;61247;-38
2024/04/09 08:45:45;;;;;;;22.30;3.20;;;;;;;23.30;33.51;99729.87;107643;1254;61215;-38
2024/04/09 08:48:14;;;;;;;3.90;1.80;;;;;;;23.34;33.14;99729.52;107606;1252;75022;-38
2024/04/09 08:50:47;;;;;;;4.80;2.00;;;;;;;23.39;32.80;99726.38;107578;1254;68086;-38
2024/04/09 08:53:16;;;;;;;2.80;1.90;;;;;;;23.47;31.80;99733.77;107615;1254;73096;-38
2024/04/09 08:55:44;;;;;;;3.70;1.60;;;;;;;23.51;31.63;99728.54;107566;1256;62208;-38
2024/04/09 08:58:12;;;;;;;16.00;3.50;;;;;;;23.55;31.80;99726.94;107581;1254;62189;-38
2024/04/09 09:00:40;;;;;;;51.10;8.60;;;;;;;23.60;32.04;99724.09;107533;1254;75070;-38
2024/04/09 09:03:07;;;;;;;5.70;2.20;;;;;;;23.68;31.48;99726.15;107622;1252;67866;-38
2024/04/09 09:05:36;;;;;;;4.00;1.50;;;;;;;23.77;31.51;99717.90;107601;1257;71546;-38
2024/04/09 09:08:05;;;;;;;10.50;2.60;;;;;;;23.86;31.31;99720.65;107626;1254;61265;-38
2024/04/09 09:10:35;;;;;;;14.40;3.40;;;;;;;23.94;31.14;99716.55;107632;1254;61253;-38
2024/04/09 09:13:03;;;;;;;24.70;3.00;;;;;;;24.00;31.07;99716.27;107546;1257;76798;-38
2024/04/09 09:15:31;;;;;;;8.50;1.90;;;;;;;24.09;31.09;99712.77;107579;1254;66611;-38
2024/04/09 09:17:59;;;;;;;2.00;1.50;;;;;;;24.18;30.69;99715.59;107530;1257;73694;-38
2024/04/09 09:20:27;;;;;;;3.30;1.80;;;;;;;24.25;29.74;99711.65;107499;1254;61288;-38
2024/04/09 09:22:54;;;;;;;2.60;1.40;;;;;;;24.28;29.44;99709.27;107621;1254;61164;-38
2024/04/09 09:25:22;;;;;;;3.00;1.80;;;;;;;24.34;29.92;99712.25;107662;1251;74631;-38
2024/04/09 09:28:09;;;;;;;3.00;1.50;;;;;;;24.42;29.67;99700.35;107655;1254;67039;-38
2024/04/09 09:30:40;;;;;;;3.00;1.30;;;;;;;24.46;29.31;99691.29;107640;1256;74927;-38
2024/04/09 09:33:21;;;;;;;2.50;1.30;;;;;;;24.54;29.46;99694.16;107676;1252;60943;-39
2024/04/09 09:35:50;;;;;;;3.40;1.80;;;;;;;24.70;28.74;99704.98;107708;1253;61061;-38
2024/04/09 09:38:17;;;;;;;2.50;1.40;;;;;;;24.79;28.55;99694.77;107587;1256;76834;-38
2024/04/09 09:40:45;;;;;;;5.80;1.50;;;;;;;24.89;28.37;99694.29;107544;1251;68121;-39
2024/04/09 09:43:15;;;;;;;2.50;1.60;;;;;;;25.04;28.21;99691.18;107598;1256;73042;-38
2024/04/09 09:45:46;;;;;;;3.20;1.70;;;;;;;25.17;28.13;99689.38;107648;1255;60468;-39
2024/04/09 09:48:19;;;;;;;2.90;2.00;;;;;;;25.22;28.61;99680.08;107642;1254;61218;-39
2024/04/09 09:50:47;;;;;;;2.20;1.60;;;;;;;25.38;28.17;99687.40;107668;1253;76912;-39
2024/04/09 09:53:17;;;;;;;3.60;1.80;;;;;;;25.51;28.04;99677.17;107649;1256;66620;-39
2024/04/09 09:55:45;;;;;;;2.60;1.70;;;;;;;25.65;27.44;99679.77;107730;1254;73077;-39
2024/04/09 09:58:18;;;;;;;4.20;1.90;;;;;;;25.74;27.18;99674.66;107684;1253;60372;-39
2024/04/09 10:00:46;;;;;;;3.60;1.50;;;;;;;25.85;26.33;99678.21;107731;1252;61064;-39
2024/04/09 10:03:15;;;;;;;3.50;1.50;;;;;;;25.91;26.60;99665.05;107673;1254;73499;-39
2024/04/09 10:05:42;;;;;;;3.50;1.50;;;;;;;26.04;26.62;99669.17;107659;1251;67163;-39
2024/04/09 10:08:20;;;;;;;19.80;4.40;;;;;;;26.16;26.33;99674.24;107632;1254;71515;-39
2024/04/09 10:10:49;;;;;;;4.60;1.40;;;;;;;26.26;25.35;99670.21;107597;1253;61190;-39
2024/04/09 10:13:25;;;;;;;1.80;1.40;;;;;;;26.31;25.02;99659.59;107613;1254;61150;-39
2024/04/09 10:15:57;;;;;;;8.50;2.30;;;;;;;26.33;25.32;99662.20;107497;1252;75111;-39
2024/04/09 10:18:34;;;;;;;2.80;1.60;;;;;;;26.38;24.77;99666.43;107671;1256;68149;-39
2024/04/09 10:21:03;;;;;;;2.50;1.70;;;;;;;26.40;24.57;99657.24;107723;1254;72730;-39
2024/04/09 10:23:37;;;;;;;2.60;1.80;;;;;;;26.47;24.98;99658.45;107670;1253;61260;-39
2024/04/09 10:26:08;;;;;;;4.50;1.40;;;;;;;26.63;24.79;99657.97;107706;1251;62655;-39
2024/04/09 10:28:37;;;;;;;4.70;1.50;;;;;;;26.77;24.62;99655.85;107642;1254;75066;-39
2024/04/09 10:31:09;;;;;;;37.60;5.80;;;;;;;26.91;24.46;99656.23;107601;1254;68579;-39
2024/04/09 10:33:39;;;;;;;3.10;1.50;;;;;;;26.98;23.94;99659.59;107675;1254;73050;-38
2024/04/09 10:36:11;;;;;;;3.80;1.60;;;;;;;26.97;24.15;99655.08;107660;1254;62219;-39
2024/04/09 10:38:44;;;;;;;21.70;3.90;;;;;;;27.05;24.21;99650.05;107691;1251;62407;-38
2024/04/09 10:41:12;;;;;;;30.40;4.60;;;;;;;27.20;24.36;99652.39;107652;1256;72934;-38
2024/04/09 10:43:42;;;;;;;3.30;1.80;;;;;;;27.37;23.87;99655.95;107648;1253;67264;-38
2024/04/09 10:46:10;;;;;;;2.80;2.00;;;;;;;27.40;23.61;99649.05;107621;1253;71827;-38
2024/04/09 10:48:43;;;;;;;4.30;1.80;;;;;;;27.42;23.81;99649.81;107679;1254;61183;-38
2024/04/09 10:51:12;;;;;;;7.20;1.50;;;;;;;27.45;23.84;99641.34;107538;1251;60427;-38
2024/04/09 10:53:40;;;;;;;2.50;1.70;;;;;;;27.44;23.86;99641.86;107551;1255;74074;-38
2024/04/09 10:56:08;;;;;;;3.90;1.70;;;;;;;27.39;24.07;99645.63;107552;1254;67133;-38
2024/04/09 10:58:39;;;;;;;4.60;1.70;;;;;;;27.40;24.07;99636.70;107532;1251;74893;-38
2024/04/09 11:01:12;;;;;;;6.10;1.90;;;;;;;27.56;24.17;99633.23;107629;1251;61245;-38
2024/04/09 11:03:40;;;;;;;3.50;1.50;;;;;;;27.72;23.33;99629.38;107635;1257;61488;-38
2024/04/09 11:06:12;;;;;;;4.50;1.60;;;;;;;27.76;23.03;99626.58;107649;1251;75190;-38
2024/04/09 11:08:40;;;;;;;6.50;2.40;;;;;;;27.77;23.39;99622.05;107631;1251;67341;-40
2024/04/09 11:11:08;;;;;;;13.20;2.90;;;;;;;27.88;23.67;99619.87;107493;1251;71903;-39
2024/04/09 11:13:35;;;;;;;15.10;3.10;;;;;;;28.12;23.43;99616.04;107528;1254;61247;-39
2024/04/09 11:16:03;;;;;;;3.40;1.80;;;;;;;28.34;22.86;99606.70;107347;1251;62131;-39
2024/04/09 11:18:31;;;;;;;4.70;1.70;;;;;;;28.37;22.29;99607.43;107696;1251;76979;-40
2024/04/09 11:21:03;;;;;;;4.40;2.10;;;;;;;28.24;21.92;99609.56;107670;1251;68212;-40
2024/04/09 11:23:31;;;;;;;2.40;1.80;;;;;;;28.09;21.94;99617.02;107685;1254;72092;-40
2024/04/09 11:25:59;;;;;;;4.00;1.80;;;;;;;28.06;22.15;99605.86;107666;1254;61247;-40
2024/04/09 11:28:27;;;;;;;2.60;1.60;;;;;;;28.15;22.35;99608.55;107625;1251;59994;-40
2024/04/09 11:30:56;;;;;;;2.80;1.70;;;;;;;28.34;22.34;99603.83;107693;1251;75059;-40
2024/04/09 11:33:26;;;;;;;4.20;2.00;;;;;;;28.51;21.76;99603.96;107632;1251;66755;-40